sensor_id;sensor_type;location;lat;lon;timestamp;temperature;humidity
16172;DHT22;8192;53.596;10.166;2024-03-23T00:52:44;6.80;99.90
16172;DHT22;8192;53.596;10.166;2024-03-23T00:55:11;6.80;99.90
16172;DHT22;8192;53.596;10.166;2024-03-23T00:57:38;6.80;99.90
16172;DHT22;8192;53.596;10.166;2024-03-23T01:00:05;6.90;99.90
16172;DHT22;8192;53.596;10.166;2024-03-23T01:02:37;6.90;99.90
16172;DHT22;8192;53.596;10.166;2024-03-23T01:05:04;6.80;99.90
16172;DHT22;8192;53.596;10.166;2024-03-23T01:07:31;6.80;99.90
16172;DHT22;8192;53.596;10.166;2024-03-23T01:09:56;6.80;99.90
16172;DHT22;8192;53.596;10.166;2024-03-23T01:12:24;6.70;99.90
16172;DHT22;8192;53.596;10.166;2024-03-23T01:14:50;6.60;99.90
16172;DHT22;8192;53.596;10.166;2024-03-23T01:17:17;6.50;99.90
16172;DHT22;8192;53.596;10.166;2024-03-23T01:19:44;6.50;99.90
16172;DHT22;8192;53.596;10.166;2024-03-23T01:22:11;6.60;99.90
16172;DHT22;8192;53.596;10.166;2024-03-23T01:24:37;6.70;99.90
16172;DHT22;8192;53.596;10.166;2024-03-23T01:27:04;6.70;99.90
16172;DHT22;8192;53.596;10.166;2024-03-23T01:29:30;6.70;99.90
16172;DHT22;8192;53.596;10.166;2024-03-23T01:31:57;6.60;99.90
16172;DHT22;8192;53.596;10.166;2024-03-23T01:34:23;6.60;99.90
16172;DHT22;8192;53.596;10.166;2024-03-23T01:36:52;6.50;99.90
16172;DHT22;8192;53.596;10.166;2024-03-23T01:39:17;6.50;99.90
16172;DHT22;8192;53.596;10.166;2024-03-23T01:41:44;6.60;99.90
16172;DHT22;8192;53.596;10.166;2024-03-23T01:44:10;6.50;99.90
16172;DHT22;8192;53.596;10.166;2024-03-23T01:46:38;6.50;99.90
16172;DHT22;8192;53.596;10.166;2024-03-23T01:49:04;6.50;99.90
16172;DHT22;8192;53.596;10.166;2024-03-23T01:51:32;6.40;99.90
16172;DHT22;8192;53.596;10.166;2024-03-23T01:54:01;6.40;99.90
16172;DHT22;8192;53.596;10.166;2024-03-23T01:56:29;6.50;99.90
16172;DHT22;8192;53.596;10.166;2024-03-23T01:58:55;6.50;99.90
16172;DHT22;8192;53.596;10.166;2024-03-23T02:01:22;6.50;99.90
16172;DHT22;8192;53.596;10.166;2024-03-23T02:03:48;6.30;99.90
16172;DHT22;8192;53.596;10.166;2024-03-23T02:06:15;6.30;99.90
16172;DHT22;8192;53.596;10.166;2024-03-23T02:08:41;6.20;99.90
16172;DHT22;8192;53.596;10.166;2024-03-23T02:11:10;6.20;99.90
16172;DHT22;8192;53.596;10.166;2024-03-23T02:13:36;6.10;99.90
16172;DHT22;8192;53.596;10.166;2024-03-23T02:16:05;6.20;99.90
16172;DHT22;8192;53.596;10.166;2024-03-23T02:18:31;6.10;99.90
16172;DHT22;8192;53.596;10.166;2024-03-23T02:20:57;6.20;99.90
16172;DHT22;8192;53.596;10.166;2024-03-23T02:23:25;6.10;99.90
16172;DHT22;8192;53.596;10.166;2024-03-23T02:25:52;6.10;99.90
16172;DHT22;8192;53.596;10.166;2024-03-23T02:28:18;6.10;99.90
16172;DHT22;8192;53.596;10.166;2024-03-23T02:30:45;6.10;99.90
16172;DHT22;8192;53.596;10.166;2024-03-23T02:33:11;6.10;99.90
16172;DHT22;8192;53.596;10.166;2024-03-23T02:35:38;5.90;99.90
16172;DHT22;8192;53.596;10.166;2024-03-23T02:38:04;5.70;99.90
16172;DHT22;8192;53.596;10.166;2024-03-23T02:40:32;5.60;99.90
16172;DHT22;8192;53.596;10.166;2024-03-23T02:42:58;5.60;99.90
16172;DHT22;8192;53.596;10.166;2024-03-23T02:45:25;5.50;99.90
16172;DHT22;8192;53.596;10.166;2024-03-23T02:47:51;5.50;99.90
16172;DHT22;8192;53.596;10.166;2024-03-23T02:50:18;5.50;99.90
16172;DHT22;8192;53.596;10.166;2024-03-23T02:52:44;5.60;99.90
16172;DHT22;8192;53.596;10.166;2024-03-23T02:55:11;5.60;99.90
16172;DHT22;8192;53.596;10.166;2024-03-23T02:57:39;5.60;99.90
16172;DHT22;8192;53.596;10.166;2024-03-23T03:00:06;5.50;99.90
16172;DHT22;8192;53.596;10.166;2024-03-23T03:02:33;5.60;99.90
16172;DHT22;8192;53.596;10.166;2024-03-23T03:05:00;5.60;99.90
16172;DHT22;8192;53.596;10.166;2024-03-23T03:07:25;5.60;99.90
16172;DHT22;8192;53.596;10.166;2024-03-23T03:09:52;5.60;99.90
16172;DHT22;8192;53.596;10.166;2024-03-23T03:12:18;5.60;99.90
16172;DHT22;8192;53.596;10.166;2024-03-23T03:14:47;5.60;99.90
16172;DHT22;8192;53.596;10.166;2024-03-23T03:17:13;5.60;99.90
16172;DHT22;8192;53.596;10.166;2024-03-23T03:19:41;5.80;99.90
16172;DHT22;8192;53.596;10.166;2024-03-23T03:22:07;5.60;99.90
16172;DHT22;8192;53.596;10.166;2024-03-23T03:24:34;5.50;99.90
16172;DHT22;8192;53.596;10.166;2024-03-23T03:27:00;5.40;99.90
16172;DHT22;8192;53.596;10.166;2024-03-23T03:29:29;5.40;99.90
16172;DHT22;8192;53.596;10.166;2024-03-23T03:32:02;5.60;99.90
16172;DHT22;8192;53.596;10.166;2024-03-23T03:34:29;5.70;99.90
16172;DHT22;8192;53.596;10.166;2024-03-23T03:36:56;5.60;99.90
16172;DHT22;8192;53.596;10.166;2024-03-23T03:39:24;5.70;99.90
16172;DHT22;8192;53.596;10.166;2024-03-23T03:41:50;5.70;99.90
16172;DHT22;8192;53.596;10.166;2024-03-23T03:44:17;5.70;99.90
16172;DHT22;8192;53.596;10.166;2024-03-23T03:46:43;5.60;99.90
16172;DHT22;8192;53.596;10.166;2024-03-23T03:49:12;5.70;99.90
16172;DHT22;8192;53.596;10.166;2024-03-23T03:51:38;5.70;99.90
16172;DHT22;8192;53.596;10.166;2024-03-23T03:54:05;5.70;99.90
16172;DHT22;8192;53.596;10.166;2024-03-23T03:56:30;5.70;99.90
16172;DHT22;8192;53.596;10.166;2024-03-23T03:58:57;5.70;99.90
16172;DHT22;8192;53.596;10.166;2024-03-23T04:01:23;5.60;99.90
16172;DHT22;8192;53.596;10.166;2024-03-23T04:03:50;5.50;99.90
16172;DHT22;8192;53.596;10.166;2024-03-23T04:06:20;5.30;99.90
16172;DHT22;8192;53.596;10.166;2024-03-23T04:08:47;5.30;99.90
16172;DHT22;8192;53.596;10.166;2024-03-23T04:11:13;5.40;99.90
16172;DHT22;8192;53.596;10.166;2024-03-23T04:13:40;5.30;99.90
16172;DHT22;8192;53.596;10.166;2024-03-23T04:16:07;5.30;99.90
16172;DHT22;8192;53.596;10.166;2024-03-23T04:18:35;5.20;99.90
16172;DHT22;8192;53.596;10.166;2024-03-23T04:21:01;5.10;99.90
16172;DHT22;8192;53.596;10.166;2024-03-23T04:23:30;5.00;99.90
16172;DHT22;8192;53.596;10.166;2024-03-23T04:25:55;5.30;99.90
16172;DHT22;8192;53.596;10.166;2024-03-23T04:28:22;5.20;99.90
16172;DHT22;8192;53.596;10.166;2024-03-23T04:30:48;5.10;99.90
16172;DHT22;8192;53.596;10.166;2024-03-23T04:33:15;5.00;99.90
16172;DHT22;8192;53.596;10.166;2024-03-23T04:35:41;5.00;99.90
16172;DHT22;8192;53.596;10.166;2024-03-23T04:38:08;5.00;99.90
16172;DHT22;8192;53.596;10.166;2024-03-23T04:40:36;5.10;99.90
16172;DHT22;8192;53.596;10.166;2024-03-23T04:43:03;5.20;99.90
16172;DHT22;8192;53.596;10.166;2024-03-23T04:45:31;5.10;99.90
16172;DHT22;8192;53.596;10.166;2024-03-23T04:47:58;4.90;99.90
16172;DHT22;8192;53.596;10.166;2024-03-23T04:50:25;4.80;99.90
16172;DHT22;8192;53.596;10.166;2024-03-23T04:52:52;4.90;99.90
16172;DHT22;8192;53.596;10.166;2024-03-23T04:55:18;5.10;99.90
16172;DHT22;8192;53.596;10.166;2024-03-23T04:57:46;5.40;99.90
16172;DHT22;8192;53.596;10.166;2024-03-23T05:00:13;5.40;99.90
16172;DHT22;8192;53.596;10.166;2024-03-23T05:02:44;5.40;99.90
16172;DHT22;8192;53.596;10.166;2024-03-23T05:05:10;5.30;99.90
16172;DHT22;8192;53.596;10.166;2024-03-23T05:07:37;5.10;99.90
16172;DHT22;8192;53.596;10.166;2024-03-23T05:10:04;5.00;99.90
16172;DHT22;8192;53.596;10.166;2024-03-23T05:12:31;4.90;99.90
16172;DHT22;8192;53.596;10.166;2024-03-23T05:15:01;4.90;99.90
16172;DHT22;8192;53.596;10.166;2024-03-23T05:17:28;5.00;99.90
16172;DHT22;8192;53.596;10.166;2024-03-23T05:19:55;5.10;99.90
16172;DHT22;8192;53.596;10.166;2024-03-23T05:22:21;5.10;99.90
16172;DHT22;8192;53.596;10.166;2024-03-23T05:24:48;5.00;99.90
16172;DHT22;8192;53.596;10.166;2024-03-23T05:27:15;4.90;99.90
16172;DHT22;8192;53.596;10.166;2024-03-23T05:29:42;4.90;99.90
16172;DHT22;8192;53.596;10.166;2024-03-23T05:32:09;5.00;99.90
16172;DHT22;8192;53.596;10.166;2024-03-23T05:34:36;5.20;99.90
16172;DHT22;8192;53.596;10.166;2024-03-23T05:37:02;5.10;99.90
16172;DHT22;8192;53.596;10.166;2024-03-23T05:39:28;5.10;99.90
16172;DHT22;8192;53.596;10.166;2024-03-23T05:41:54;5.20;99.90
16172;DHT22;8192;53.596;10.166;2024-03-23T05:44:23;5.20;99.90
16172;DHT22;8192;53.596;10.166;2024-03-23T05:46:49;5.10;99.90
16172;DHT22;8192;53.596;10.166;2024-03-23T05:49:18;5.10;99.90
16172;DHT22;8192;53.596;10.166;2024-03-23T05:51:44;5.30;99.90
16172;DHT22;8192;53.596;10.166;2024-03-23T05:54:11;5.40;99.90
16172;DHT22;8192;53.596;10.166;2024-03-23T05:56:37;5.60;99.90
16172;DHT22;8192;53.596;10.166;2024-03-23T05:59:04;5.80;99.90
16172;DHT22;8192;53.596;10.166;2024-03-23T06:01:30;5.90;99.90
16172;DHT22;8192;53.596;10.166;2024-03-23T06:03:58;5.90;99.90
16172;DHT22;8192;53.596;10.166;2024-03-23T06:06:26;5.80;99.90
16172;DHT22;8192;53.596;10.166;2024-03-23T06:08:52;5.80;99.90
16172;DHT22;8192;53.596;10.166;2024-03-23T06:11:18;6.00;99.90
16172;DHT22;8192;53.596;10.166;2024-03-23T06:13:45;6.00;99.90
16172;DHT22;8192;53.596;10.166;2024-03-23T06:16:11;6.00;99.90
16172;DHT22;8192;53.596;10.166;2024-03-23T06:18:39;6.00;99.90
16172;DHT22;8192;53.596;10.166;2024-03-23T06:21:05;6.20;99.90
16172;DHT22;8192;53.596;10.166;2024-03-23T06:23:40;6.50;99.90
16172;DHT22;8192;53.596;10.166;2024-03-23T06:26:07;6.70;99.90
16172;DHT22;8192;53.596;10.166;2024-03-23T06:28:34;6.70;99.90
16172;DHT22;8192;53.596;10.166;2024-03-23T06:30:59;6.80;99.90
16172;DHT22;8192;53.596;10.166;2024-03-23T06:33:26;7.00;99.90
16172;DHT22;8192;53.596;10.166;2024-03-23T06:35:53;7.10;99.90
16172;DHT22;8192;53.596;10.166;2024-03-23T06:38:19;7.10;99.90
16172;DHT22;8192;53.596;10.166;2024-03-23T06:40:47;7.10;99.90
16172;DHT22;8192;53.596;10.166;2024-03-23T06:43:16;7.00;99.90
16172;DHT22;8192;53.596;10.166;2024-03-23T06:45:44;7.10;99.90
16172;DHT22;8192;53.596;10.166;2024-03-23T06:48:11;7.50;99.90
16172;DHT22;8192;53.596;10.166;2024-03-23T06:50:37;7.70;99.90
16172;DHT22;8192;53.596;10.166;2024-03-23T06:53:04;7.90;99.90
16172;DHT22;8192;53.596;10.166;2024-03-23T06:55:32;8.30;99.90
16172;DHT22;8192;53.596;10.166;2024-03-23T06:58:00;8.60;99.90
16172;DHT22;8192;53.596;10.166;2024-03-23T07:00:26;8.60;99.90
16172;DHT22;8192;53.596;10.166;2024-03-23T07:02:53;8.20;99.90
16172;DHT22;8192;53.596;10.166;2024-03-23T07:05:19;8.20;99.90
16172;DHT22;8192;53.596;10.166;2024-03-23T07:07:46;8.10;99.90
16172;DHT22;8192;53.596;10.166;2024-03-23T07:10:12;8.00;99.90
16172;DHT22;8192;53.596;10.166;2024-03-23T07:12:39;8.00;99.90
16172;DHT22;8192;53.596;10.166;2024-03-23T07:15:08;7.80;99.90
16172;DHT22;8192;53.596;10.166;2024-03-23T07:17:35;7.80;99.90
16172;DHT22;8192;53.596;10.166;2024-03-23T07:20:03;7.80;99.90
16172;DHT22;8192;53.596;10.166;2024-03-23T07:22:30;8.00;99.90
16172;DHT22;8192;53.596;10.166;2024-03-23T07:24:59;8.20;99.90
16172;DHT22;8192;53.596;10.166;2024-03-23T07:27:26;8.20;99.90
16172;DHT22;8192;53.596;10.166;2024-03-23T07:29:52;8.60;99.90
16172;DHT22;8192;53.596;10.166;2024-03-23T07:32:22;9.20;99.90
16172;DHT22;8192;53.596;10.166;2024-03-23T07:34:50;9.20;99.90
16172;DHT22;8192;53.596;10.166;2024-03-23T07:37:16;9.30;99.90
16172;DHT22;8192;53.596;10.166;2024-03-23T07:39:44;9.40;99.90
16172;DHT22;8192;53.596;10.166;2024-03-23T07:42:11;9.20;99.90
16172;DHT22;8192;53.596;10.166;2024-03-23T07:44:36;9.50;99.90
16172;DHT22;8192;53.596;10.166;2024-03-23T07:47:04;9.10;99.90
16172;DHT22;8192;53.596;10.166;2024-03-23T07:49:32;9.10;99.90
16172;DHT22;8192;53.596;10.166;2024-03-23T07:51:59;8.70;99.90
16172;DHT22;8192;53.596;10.166;2024-03-23T07:54:24;8.70;99.90
16172;DHT22;8192;53.596;10.166;2024-03-23T07:56:51;8.80;99.90
16172;DHT22;8192;53.596;10.166;2024-03-23T07:59:19;8.80;99.90
16172;DHT22;8192;53.596;10.166;2024-03-23T08:01:46;8.70;99.90
16172;DHT22;8192;53.596;10.166;2024-03-23T08:04:11;8.50;99.90
16172;DHT22;8192;53.596;10.166;2024-03-23T08:06:40;8.40;99.90
16172;DHT22;8192;53.596;10.166;2024-03-23T08:09:06;8.40;99.90
16172;DHT22;8192;53.596;10.166;2024-03-23T08:11:33;8.10;99.90
16172;DHT22;8192;53.596;10.166;2024-03-23T08:14:00;8.20;99.90
16172;DHT22;8192;53.596;10.166;2024-03-23T08:16:28;8.30;99.90
16172;DHT22;8192;53.596;10.166;2024-03-23T08:18:54;8.50;99.90
16172;DHT22;8192;53.596;10.166;2024-03-23T08:21:22;8.70;99.90
16172;DHT22;8192;53.596;10.166;2024-03-23T08:23:49;8.70;99.90
16172;DHT22;8192;53.596;10.166;2024-03-23T08:26:16;8.70;99.90
16172;DHT22;8192;53.596;10.166;2024-03-23T08:28:43;8.60;99.90
16172;DHT22;8192;53.596;10.166;2024-03-23T08:31:11;8.70;99.90
16172;DHT22;8192;53.596;10.166;2024-03-23T08:33:38;8.80;99.90
16172;DHT22;8192;53.596;10.166;2024-03-23T08:36:07;8.90;99.90
16172;DHT22;8192;53.596;10.166;2024-03-23T08:38:34;9.00;99.90
16172;DHT22;8192;53.596;10.166;2024-03-23T08:41:04;8.90;99.90
16172;DHT22;8192;53.596;10.166;2024-03-23T08:43:35;8.80;99.90
16172;DHT22;8192;53.596;10.166;2024-03-23T08:46:06;8.90;99.90
16172;DHT22;8192;53.596;10.166;2024-03-23T08:48:32;9.20;99.90
16172;DHT22;8192;53.596;10.166;2024-03-23T08:51:01;9.50;99.90
16172;DHT22;8192;53.596;10.166;2024-03-23T08:53:28;9.50;99.90
16172;DHT22;8192;53.596;10.166;2024-03-23T08:55:56;9.40;99.90
16172;DHT22;8192;53.596;10.166;2024-03-23T08:58:24;9.30;99.90
16172;DHT22;8192;53.596;10.166;2024-03-23T09:00:51;9.50;99.90
16172;DHT22;8192;53.596;10.166;2024-03-23T09:03:17;9.50;99.90
16172;DHT22;8192;53.596;10.166;2024-03-23T09:05:44;9.50;99.90
16172;DHT22;8192;53.596;10.166;2024-03-23T09:08:10;9.60;99.90
16172;DHT22;8192;53.596;10.166;2024-03-23T09:10:39;9.50;99.90
16172;DHT22;8192;53.596;10.166;2024-03-23T09:13:05;9.60;99.90
16172;DHT22;8192;53.596;10.166;2024-03-23T09:15:34;9.80;99.90
16172;DHT22;8192;53.596;10.166;2024-03-23T09:18:00;9.90;99.90
16172;DHT22;8192;53.596;10.166;2024-03-23T09:20:27;10.20;99.90
16172;DHT22;8192;53.596;10.166;2024-03-23T09:22:53;10.40;99.90
16172;DHT22;8192;53.596;10.166;2024-03-23T09:25:20;10.30;99.90
16172;DHT22;8192;53.596;10.166;2024-03-23T09:27:46;10.40;99.90
16172;DHT22;8192;53.596;10.166;2024-03-23T09:30:13;10.50;99.90
16172;DHT22;8192;53.596;10.166;2024-03-23T09:32:42;10.70;99.90
16172;DHT22;8192;53.596;10.166;2024-03-23T09:35:09;10.90;99.90
16172;DHT22;8192;53.596;10.166;2024-03-23T09:37:35;10.40;99.90
16172;DHT22;8192;53.596;10.166;2024-03-23T09:40:02;10.60;99.90
16172;DHT22;8192;53.596;10.166;2024-03-23T09:42:28;10.10;99.90
16172;DHT22;8192;53.596;10.166;2024-03-23T09:44:57;10.00;99.90
16172;DHT22;8192;53.596;10.166;2024-03-23T09:47:24;10.00;99.90
16172;DHT22;8192;53.596;10.166;2024-03-23T09:49:54;10.00;99.90
16172;DHT22;8192;53.596;10.166;2024-03-23T09:52:20;9.70;99.90
16172;DHT22;8192;53.596;10.166;2024-03-23T09:54:47;9.60;99.90
16172;DHT22;8192;53.596;10.166;2024-03-23T09:57:13;9.70;99.90
16172;DHT22;8192;53.596;10.166;2024-03-23T09:59:40;9.90;99.90
16172;DHT22;8192;53.596;10.166;2024-03-23T10:02:07;10.00;99.90
16172;DHT22;8192;53.596;10.166;2024-03-23T10:04:37;10.00;99.90
16172;DHT22;8192;53.596;10.166;2024-03-23T10:07:12;10.40;99.90
16172;DHT22;8192;53.596;10.166;2024-03-23T10:09:39;10.40;99.90
16172;DHT22;8192;53.596;10.166;2024-03-23T10:12:09;10.50;99.90
16172;DHT22;8192;53.596;10.166;2024-03-23T10:14:37;10.60;99.90
16172;DHT22;8192;53.596;10.166;2024-03-23T10:17:15;10.70;99.90
16172;DHT22;8192;53.596;10.166;2024-03-23T10:19:43;10.40;99.90
16172;DHT22;8192;53.596;10.166;2024-03-23T10:22:13;10.10;99.90
16172;DHT22;8192;53.596;10.166;2024-03-23T10:24:40;9.50;99.90
16172;DHT22;8192;53.596;10.166;2024-03-23T10:27:06;9.00;99.90
16172;DHT22;8192;53.596;10.166;2024-03-23T10:29:33;8.90;99.90
16172;DHT22;8192;53.596;10.166;2024-03-23T10:32:08;9.20;99.90
16172;DHT22;8192;53.596;10.166;2024-03-23T10:34:36;9.60;99.90
16172;DHT22;8192;53.596;10.166;2024-03-23T10:37:02;9.70;99.90
16172;DHT22;8192;53.596;10.166;2024-03-23T10:39:33;9.80;99.90
16172;DHT22;8192;53.596;10.166;2024-03-23T10:42:02;9.80;99.90
16172;DHT22;8192;53.596;10.166;2024-03-23T10:44:29;9.80;99.90
16172;DHT22;8192;53.596;10.166;2024-03-23T10:46:57;10.10;99.90
16172;DHT22;8192;53.596;10.166;2024-03-23T10:49:27;10.30;99.90
16172;DHT22;8192;53.596;10.166;2024-03-23T10:51:59;10.10;99.90
16172;DHT22;8192;53.596;10.166;2024-03-23T10:54:26;9.70;99.90
16172;DHT22;8192;53.596;10.166;2024-03-23T10:56:57;9.70;99.90
16172;DHT22;8192;53.596;10.166;2024-03-23T10:59:29;9.40;99.90
16172;DHT22;8192;53.596;10.166;2024-03-23T11:01:57;9.20;99.90
16172;DHT22;8192;53.596;10.166;2024-03-23T11:04:31;9.00;99.90
16172;DHT22;8192;53.596;10.166;2024-03-23T11:06:57;9.10;99.90
16172;DHT22;8192;53.596;10.166;2024-03-23T11:09:40;9.10;99.90
16172;DHT22;8192;53.596;10.166;2024-03-23T11:12:28;9.10;99.90
16172;DHT22;8192;53.596;10.166;2024-03-23T11:15:01;9.10;99.90
16172;DHT22;8192;53.596;10.166;2024-03-23T11:17:28;9.00;99.90
16172;DHT22;8192;53.596;10.166;2024-03-23T11:19:56;8.90;99.90
16172;DHT22;8192;53.596;10.166;2024-03-23T11:22:39;9.00;99.90
16172;DHT22;8192;53.596;10.166;2024-03-23T11:25:17;9.40;99.90
16172;DHT22;8192;53.596;10.166;2024-03-23T11:27:45;9.80;99.90
16172;DHT22;8192;53.596;10.166;2024-03-23T11:30:16;9.90;99.90
16172;DHT22;8192;53.596;10.166;2024-03-23T11:32:56;10.30;99.90
16172;DHT22;8192;53.596;10.166;2024-03-23T11:35:30;10.70;99.90
16172;DHT22;8192;53.596;10.166;2024-03-23T11:38:15;11.10;99.90
16172;DHT22;8192;53.596;10.166;2024-03-23T11:40:44;11.50;99.90
16172;DHT22;8192;53.596;10.166;2024-03-23T11:43:13;11.70;99.90
16172;DHT22;8192;53.596;10.166;2024-03-23T11:45:42;11.90;99.90
16172;DHT22;8192;53.596;10.166;2024-03-23T11:48:09;12.10;99.90
16172;DHT22;8192;53.596;10.166;2024-03-23T11:50:38;11.70;99.90
16172;DHT22;8192;53.596;10.166;2024-03-23T11:53:11;11.60;99.90
16172;DHT22;8192;53.596;10.166;2024-03-23T11:55:41;11.40;99.90
16172;DHT22;8192;53.596;10.166;2024-03-23T11:58:07;11.10;99.90
16172;DHT22;8192;53.596;10.166;2024-03-23T12:00:35;11.00;99.90
16172;DHT22;8192;53.596;10.166;2024-03-23T12:03:02;11.20;99.90
16172;DHT22;8192;53.596;10.166;2024-03-23T12:05:29;11.20;99.90
16172;DHT22;8192;53.596;10.166;2024-03-23T12:08:15;11.20;99.90
16172;DHT22;8192;53.596;10.166;2024-03-23T12:10:46;11.00;99.90
16172;DHT22;8192;53.596;10.166;2024-03-23T12:13:15;11.10;99.90
16172;DHT22;8192;53.596;10.166;2024-03-23T12:15:45;10.90;99.90
16172;DHT22;8192;53.596;10.166;2024-03-23T12:18:11;10.00;99.90
16172;DHT22;8192;53.596;10.166;2024-03-23T12:20:38;8.70;99.90
16172;DHT22;8192;53.596;10.166;2024-03-23T12:23:05;7.10;99.90
16172;DHT22;8192;53.596;10.166;2024-03-23T12:25:33;6.20;99.90
16172;DHT22;8192;53.596;10.166;2024-03-23T12:27:59;5.90;99.90
16172;DHT22;8192;53.596;10.166;2024-03-23T12:30:26;6.00;99.90
16172;DHT22;8192;53.596;10.166;2024-03-23T12:32:54;6.60;99.90
16172;DHT22;8192;53.596;10.166;2024-03-23T12:35:21;7.20;99.90
16172;DHT22;8192;53.596;10.166;2024-03-23T12:37:47;7.50;99.90
16172;DHT22;8192;53.596;10.166;2024-03-23T12:40:16;7.40;99.90
16172;DHT22;8192;53.596;10.166;2024-03-23T12:42:42;7.30;99.90
16172;DHT22;8192;53.596;10.166;2024-03-23T12:45:09;7.30;99.90
16172;DHT22;8192;53.596;10.166;2024-03-23T12:47:35;7.60;99.90
16172;DHT22;8192;53.596;10.166;2024-03-23T12:50:04;7.90;99.90
16172;DHT22;8192;53.596;10.166;2024-03-23T12:52:31;8.10;99.90
16172;DHT22;8192;53.596;10.166;2024-03-23T12:54:58;8.00;99.90
16172;DHT22;8192;53.596;10.166;2024-03-23T12:57:24;7.80;99.90
16172;DHT22;8192;53.596;10.166;2024-03-23T12:59:52;6.70;99.90
16172;DHT22;8192;53.596;10.166;2024-03-23T13:02:19;5.80;99.90
16172;DHT22;8192;53.596;10.166;2024-03-23T13:04:49;5.60;99.90
16172;DHT22;8192;53.596;10.166;2024-03-23T13:07:16;5.60;99.90
16172;DHT22;8192;53.596;10.166;2024-03-23T13:09:43;5.60;99.90
16172;DHT22;8192;53.596;10.166;2024-03-23T13:12:09;5.60;99.90
16172;DHT22;8192;53.596;10.166;2024-03-23T13:14:37;5.50;99.90
16172;DHT22;8192;53.596;10.166;2024-03-23T13:17:03;5.40;99.90
16172;DHT22;8192;53.596;10.166;2024-03-23T13:19:30;5.40;99.90
16172;DHT22;8192;53.596;10.166;2024-03-23T13:21:57;5.50;99.90
16172;DHT22;8192;53.596;10.166;2024-03-23T13:24:26;5.60;99.90
16172;DHT22;8192;53.596;10.166;2024-03-23T13:26:53;5.80;99.90
16172;DHT22;8192;53.596;10.166;2024-03-23T13:29:20;6.10;99.90
16172;DHT22;8192;53.596;10.166;2024-03-23T13:31:46;6.60;99.90
16172;DHT22;8192;53.596;10.166;2024-03-23T13:34:13;6.70;99.90
16172;DHT22;8192;53.596;10.166;2024-03-23T13:36:40;6.80;99.90
16172;DHT22;8192;53.596;10.166;2024-03-23T13:39:09;6.70;99.90
16172;DHT22;8192;53.596;10.166;2024-03-23T13:41:39;6.80;99.90
16172;DHT22;8192;53.596;10.166;2024-03-23T13:44:06;6.80;99.90
16172;DHT22;8192;53.596;10.166;2024-03-23T13:46:32;6.80;99.90
16172;DHT22;8192;53.596;10.166;2024-03-23T13:48:59;6.90;99.90
16172;DHT22;8192;53.596;10.166;2024-03-23T13:51:26;7.10;99.90
16172;DHT22;8192;53.596;10.166;2024-03-23T13:53:53;7.40;99.90
16172;DHT22;8192;53.596;10.166;2024-03-23T13:56:20;7.80;99.90
16172;DHT22;8192;53.596;10.166;2024-03-23T13:58:48;8.00;99.90
16172;DHT22;8192;53.596;10.166;2024-03-23T14:01:14;7.90;99.90
16172;DHT22;8192;53.596;10.166;2024-03-23T14:03:41;8.00;99.90
16172;DHT22;8192;53.596;10.166;2024-03-23T14:06:08;7.90;99.90
16172;DHT22;8192;53.596;10.166;2024-03-23T14:08:35;7.80;99.90
16172;DHT22;8192;53.596;10.166;2024-03-23T14:11:05;7.50;99.90
16172;DHT22;8192;53.596;10.166;2024-03-23T14:13:32;7.50;99.90
16172;DHT22;8192;53.596;10.166;2024-03-23T14:15:59;7.50;99.90
16172;DHT22;8192;53.596;10.166;2024-03-23T14:18:26;7.60;99.90
16172;DHT22;8192;53.596;10.166;2024-03-23T14:20:56;7.80;99.90
16172;DHT22;8192;53.596;10.166;2024-03-23T14:23:25;8.10;99.90
16172;DHT22;8192;53.596;10.166;2024-03-23T14:25:53;8.30;99.90
16172;DHT22;8192;53.596;10.166;2024-03-23T14:28:21;8.90;99.90
16172;DHT22;8192;53.596;10.166;2024-03-23T14:30:48;9.90;99.90
16172;DHT22;8192;53.596;10.166;2024-03-23T14:33:18;10.60;99.90
16172;DHT22;8192;53.596;10.166;2024-03-23T14:35:52;10.50;99.90
16172;DHT22;8192;53.596;10.166;2024-03-23T14:38:20;10.30;99.90
16172;DHT22;8192;53.596;10.166;2024-03-23T14:40:46;10.00;99.90
16172;DHT22;8192;53.596;10.166;2024-03-23T14:43:14;10.10;99.90
16172;DHT22;8192;53.596;10.166;2024-03-23T14:45:49;9.50;99.90
16172;DHT22;8192;53.596;10.166;2024-03-23T14:48:34;9.10;99.90
16172;DHT22;8192;53.596;10.166;2024-03-23T14:51:01;8.60;99.90
16172;DHT22;8192;53.596;10.166;2024-03-23T14:53:30;8.80;99.90
16172;DHT22;8192;53.596;10.166;2024-03-23T14:55:56;9.40;99.90
16172;DHT22;8192;53.596;10.166;2024-03-23T14:58:23;9.80;99.90
16172;DHT22;8192;53.596;10.166;2024-03-23T15:00:50;9.40;99.90
16172;DHT22;8192;53.596;10.166;2024-03-23T15:03:17;8.80;99.90
16172;DHT22;8192;53.596;10.166;2024-03-23T15:05:52;8.30;99.90
16172;DHT22;8192;53.596;10.166;2024-03-23T15:08:19;8.00;99.90
16172;DHT22;8192;53.596;10.166;2024-03-23T15:10:45;7.80;99.90
16172;DHT22;8192;53.596;10.166;2024-03-23T15:13:12;7.80;99.90
16172;DHT22;8192;53.596;10.166;2024-03-23T15:15:39;7.40;99.90
16172;DHT22;8192;53.596;10.166;2024-03-23T15:18:07;7.00;99.90
16172;DHT22;8192;53.596;10.166;2024-03-23T15:20:33;6.90;99.90
16172;DHT22;8192;53.596;10.166;2024-03-23T15:23:02;6.80;99.90
16172;DHT22;8192;53.596;10.166;2024-03-23T15:25:29;6.60;99.90
16172;DHT22;8192;53.596;10.166;2024-03-23T15:27:56;6.60;99.90
16172;DHT22;8192;53.596;10.166;2024-03-23T15:30:23;6.60;99.90
16172;DHT22;8192;53.596;10.166;2024-03-23T15:32:50;6.70;99.90
16172;DHT22;8192;53.596;10.166;2024-03-23T15:35:16;7.00;99.90
16172;DHT22;8192;53.596;10.166;2024-03-23T15:37:43;7.40;99.90
16172;DHT22;8192;53.596;10.166;2024-03-23T15:40:11;7.90;99.90
16172;DHT22;8192;53.596;10.166;2024-03-23T15:42:39;8.00;99.90
16172;DHT22;8192;53.596;10.166;2024-03-23T15:45:06;7.70;99.90
16172;DHT22;8192;53.596;10.166;2024-03-23T15:47:35;7.80;99.90
16172;DHT22;8192;53.596;10.166;2024-03-23T15:50:01;7.80;99.90
16172;DHT22;8192;53.596;10.166;2024-03-23T15:52:29;7.90;99.90
16172;DHT22;8192;53.596;10.166;2024-03-23T15:54:56;7.50;99.90
16172;DHT22;8192;53.596;10.166;2024-03-23T15:57:26;7.40;99.90
16172;DHT22;8192;53.596;10.166;2024-03-23T15:59:52;7.40;99.90
16172;DHT22;8192;53.596;10.166;2024-03-23T16:02:19;7.20;99.90
16172;DHT22;8192;53.596;10.166;2024-03-23T16:04:45;7.00;99.90
16172;DHT22;8192;53.596;10.166;2024-03-23T16:07:12;6.90;99.90
16172;DHT22;8192;53.596;10.166;2024-03-23T16:09:39;6.90;99.90
16172;DHT22;8192;53.596;10.166;2024-03-23T16:12:06;7.10;99.90
16172;DHT22;8192;53.596;10.166;2024-03-23T16:14:34;7.30;99.90
16172;DHT22;8192;53.596;10.166;2024-03-23T16:17:01;7.30;99.90
16172;DHT22;8192;53.596;10.166;2024-03-23T16:19:26;7.20;99.90
16172;DHT22;8192;53.596;10.166;2024-03-23T16:21:53;7.20;99.90
16172;DHT22;8192;53.596;10.166;2024-03-23T16:24:20;7.00;99.90
16172;DHT22;8192;53.596;10.166;2024-03-23T16:26:47;7.00;99.90
16172;DHT22;8192;53.596;10.166;2024-03-23T16:29:14;7.00;99.90
16172;DHT22;8192;53.596;10.166;2024-03-23T16:31:43;7.00;99.90
16172;DHT22;8192;53.596;10.166;2024-03-23T16:34:09;7.10;99.90
16172;DHT22;8192;53.596;10.166;2024-03-23T16:36:54;7.10;99.90
16172;DHT22;8192;53.596;10.166;2024-03-23T16:39:20;7.00;99.90